Time;durP1;ratioP1;P1;durP2;ratioP2;P2;SDS_P1;SDS_P2;PMS_P1;PMS_P2;Temp;Humidity;BMP_temperature;BMP_pressure;BME280_temperature;BME280_humidity;BME280_pressure;Samples;Min_cycle;Max_cycle;Signal;HPM_P1;HPM_P2
2022/02/23 00:00:50;;;;;;;;;;;;;;;7.03;100.00;99409.03;5015226;28;19980;-78
2022/02/23 00:03:35;;;;;;;;;;;;;;;6.93;100.00;99409.00;4988055;28;20189;-78
2022/02/23 00:06:21;;;;;;;;;;;;;;;7.05;100.00;99415.00;5013750;28;19933;-78
2022/02/23 00:09:07;;;;;;;;;;;;;;;7.08;100.00;99405.09;5012464;28;19932;-78
2022/02/23 00:11:52;;;;;;;;;;;;;;;6.94;100.00;99399.47;5001230;28;19975;-78
2022/02/23 00:14:38;;;;;;;;;;;;;;;6.90;100.00;99384.78;5015137;28;19988;-78
2022/02/23 00:17:25;;;;;;;;;;;;;;;6.88;100.00;99392.69;5019205;28;20435;-78
2022/02/23 00:20:12;;;;;;;;;;;;;;;6.88;100.00;99403.81;5077124;28;19949;-78
2022/02/23 00:23:01;;;;;;;;;;;;;;;6.81;100.00;99398.25;5061742;28;20260;-78
2022/02/23 00:25:47;;;;;;;;;;;;;;;6.69;100.00;99395.81;5066539;28;19977;-78
2022/02/23 00:28:33;;;;;;;;;;;;;;;6.73;100.00;99391.06;5096851;28;20390;-78
2022/02/23 00:31:18;;;;;;;;;;;;;;;6.59;100.00;99383.47;5091733;28;19931;-78
2022/02/23 00:34:04;;;;;;;;;;;;;;;6.64;100.00;99385.88;5118597;27;20275;-78
2022/02/23 00:36:50;;;;;;;;;;;;;;;6.62;100.00;99381.91;5117272;28;19931;-78
2022/02/23 00:39:36;;;;;;;;;;;;;;;6.63;100.00;99383.47;5102144;28;19931;-78
2022/02/23 00:42:22;;;;;;;;;;;;;;;6.60;100.00;99367.59;5117358;28;19930;-78
2022/02/23 00:45:08;;;;;;;;;;;;;;;6.59;100.00;99360.44;5112075;28;19955;-79
2022/02/23 00:47:53;;;;;;;;;;;;;;;6.53;100.00;99356.44;5081659;28;19973;-78
2022/02/23 00:50:39;;;;;;;;;;;;;;;6.41;100.00;99354.00;5096457;28;19930;-78
2022/02/23 00:53:24;;;;;;;;;;;;;;;6.44;100.00;99356.00;5081075;28;19931;-78
2022/02/23 00:56:10;;;;;;;;;;;;;;;6.55;100.00;99362.41;5081472;28;19931;-78
2022/02/23 00:58:55;;;;;;;;;;;;;;;6.47;100.00;99350.47;5096304;28;19935;-79
2022/02/23 01:01:41;;;;;;;;;;;;;;;6.41;100.00;99352.03;5080903;28;20412;-78
2022/02/23 01:04:27;;;;;;;;;;;;;;;6.46;100.00;99350.88;5076258;28;20029;-78
2022/02/23 01:07:14;;;;;;;;;;;;;;;6.39;100.00;99345.28;5075766;28;20425;-78
2022/02/23 01:10:00;;;;;;;;;;;;;;;6.27;100.00;99343.63;5088671;28;19931;-78
2022/02/23 01:12:47;;;;;;;;;;;;;;;6.33;100.00;99332.97;5095639;28;19997;-78
2022/02/23 01:15:33;;;;;;;;;;;;;;;6.25;100.00;99331.34;5095629;28;19969;-78
2022/02/23 01:18:19;;;;;;;;;;;;;;;6.18;100.00;99300.78;5110995;28;19976;-78
2022/02/23 01:21:05;;;;;;;;;;;;;;;6.39;100.00;99312.00;5100050;28;19931;-78
2022/02/23 01:23:58;;;;;;;;;;;;;;;6.45;100.00;99340.97;5013049;28;19926;-77
2022/02/23 01:26:47;;;;;;;;;;;;;;;6.52;100.00;99346.53;4998858;28;20015;-77
2022/02/23 01:29:33;;;;;;;;;;;;;;;6.52;100.00;99316.00;5008318;28;19976;-78
2022/02/23 01:32:20;;;;;;;;;;;;;;;6.41;100.00;99309.59;4993890;28;19941;-77
2022/02/23 01:35:06;;;;;;;;;;;;;;;6.51;100.00;99331.84;4993441;28;20468;-77
2022/02/23 01:38:11;;;;;;;;;;;;;;;6.62;100.00;99318.03;4974157;28;20075;-77
2022/02/23 01:40:57;;;;;;;;;;;;;;;6.68;100.00;99316.47;4974357;28;19974;-77
2022/02/23 01:43:44;;;;;;;;;;;;;;;6.68;100.00;99316.47;4974426;28;19972;-77
2022/02/23 01:46:40;;;;;;;;;;;;;;;6.61;100.00;99310.88;4973926;28;19926;-77
2022/02/23 01:49:10;;;;;;;;;;;;;;;6.53;100.00;99312.84;4945811;29;20013;-77
2022/02/23 01:51:57;;;;;;;;;;;;;;;6.56;100.00;99327.91;4953325;29;19985;-77
2022/02/23 01:54:56;;;;;;;;;;;;;;;6.57;100.00;99335.06;4942643;29;19962;-78
2022/02/23 01:57:44;;;;;;;;;;;;;;;6.59;100.00;99327.94;4929213;29;19926;-77
2022/02/23 02:00:30;;;;;;;;;;;;;;;6.58;100.00;99339.41;4981670;28;19936;-78
2022/02/23 02:03:23;;;;;;;;;;;;;;;6.55;100.00;99323.53;4954253;29;19933;-78
2022/02/23 02:06:10;;;;;;;;;;;;;;;6.55;100.00;99329.09;4954147;29;20025;-78
2022/02/23 02:09:02;;;;;;;;;;;;;;;6.43;100.00;99319.16;4934065;29;20301;-78
2022/02/23 02:11:47;;;;;;;;;;;;;;;6.55;100.00;99310.47;4953774;28;19937;-78
2022/02/23 02:14:33;;;;;;;;;;;;;;;6.53;100.00;99318.38;4940740;29;19934;-78
2022/02/23 02:17:19;;;;;;;;;;;;;;;6.52;100.00;99310.44;4954427;28;19964;-78
2022/02/23 02:20:05;;;;;;;;;;;;;;;6.56;100.00;99300.13;4940714;28;19933;-78
2022/02/23 02:22:51;;;;;;;;;;;;;;;6.53;100.00;99289.81;4940658;29;20061;-78
2022/02/23 02:25:39;;;;;;;;;;;;;;;6.58;100.00;99281.94;4961084;28;19926;-78
2022/02/23 02:28:11;;;;;;;;;;;;;;;6.57;100.00;99283.09;4973171;28;19934;-78
2022/02/23 02:30:52;;;;;;;;;;;;;;;6.69;100.00;99281.97;4973131;28;19933;-77
2022/02/23 02:33:23;;;;;;;;;;;;;;;6.74;100.00;99251.03;4972965;28;20333;-78
2022/02/23 02:35:52;;;;;;;;;;;;;;;6.77;100.00;99272.47;4973135;28;20322;-78
2022/02/23 02:38:38;;;;;;;;;;;;;;;6.82;100.00;99263.72;4972808;28;19926;-78
2022/02/23 02:41:25;;;;;;;;;;;;;;;6.81;100.00;99284.38;5021570;28;19925;-77
2022/02/23 02:44:13;;;;;;;;;;;;;;;6.84;100.00;99303.03;5032838;28;20343;-77
2022/02/23 02:46:48;;;;;;;;;;;;;;;6.85;100.00;99274.84;5045281;28;19949;-78
2022/02/23 02:49:36;;;;;;;;;;;;;;;6.81;100.00;99281.59;5051395;28;20019;-78
2022/02/23 02:52:22;;;;;;;;;;;;;;;6.78;100.00;99285.16;5033873;28;19932;-78
2022/02/23 02:55:10;;;;;;;;;;;;;;;6.76;100.00;99268.88;5046906;28;19932;-78
2022/02/23 02:57:58;;;;;;;;;;;;;;;6.76;100.00;99260.56;5034149;28;19925;-78
2022/02/23 03:00:31;;;;;;;;;;;;;;;6.87;100.00;99244.72;5032988;28;19977;-78
2022/02/23 03:03:17;;;;;;;;;;;;;;;6.80;100.00;99249.47;5034218;28;20296;-78
2022/02/23 03:06:03;;;;;;;;;;;;;;;6.99;100.00;99261.00;5032891;28;20015;-77
2022/02/23 03:08:59;;;;;;;;;;;;;;;6.90;100.00;99254.22;5051086;28;19924;-78
2022/02/23 03:11:46;;;;;;;;;;;;;;;6.77;100.00;99273.25;5037476;28;19932;-77
2022/02/23 03:14:31;;;;;;;;;;;;;;;6.75;100.00;99274.84;5050188;28;20284;-78
2022/02/23 03:17:18;;;;;;;;;;;;;;;6.77;100.00;99272.47;5023505;28;20284;-78
2022/02/23 03:20:23;;;;;;;;;;;;;;;6.81;100.00;99262.16;5046127;28;19924;-78
2022/02/23 03:23:09;;;;;;;;;;;;;;;6.66;100.00;99257.75;5037928;28;19932;-78
2022/02/23 03:25:55;;;;;;;;;;;;;;;6.75;100.00;99258.16;5055816;28;19932;-77
2022/02/23 03:28:43;;;;;;;;;;;;;;;6.66;100.00;99261.34;5005740;28;20025;-78
2022/02/23 03:31:29;;;;;;;;;;;;;;;6.57;100.00;99268.44;5055271;28;19939;-78
2022/02/23 03:34:17;;;;;;;;;;;;;;;6.40;100.00;99258.06;5054867;28;20442;-78
2022/02/23 03:37:03;;;;;;;;;;;;;;;6.44;100.00;99261.63;5055435;28;19960;-78
2022/02/23 03:39:49;;;;;;;;;;;;;;;6.40;100.00;99264.41;5043955;28;19932;-78
2022/02/23 03:42:41;;;;;;;;;;;;;;;6.35;100.00;99255.66;5075113;28;19925;-78
2022/02/23 03:45:28;;;;;;;;;;;;;;;6.33;100.00;99255.28;5061009;28;20409;-78
2022/02/23 03:48:18;;;;;;;;;;;;;;;6.20;100.00;99259.56;5061526;28;19925;-78
2022/02/23 03:51:07;;;;;;;;;;;;;;;6.21;100.00;99258.41;5074246;28;19928;-78
2022/02/23 03:53:36;;;;;;;;;;;;;;;6.22;100.00;99240.56;5074846;28;19931;-77
2022/02/23 03:56:42;;;;;;;;;;;;;;;6.37;100.00;99247.75;5047273;28;19951;-78
2022/02/23 03:59:30;;;;;;;;;;;;;;;6.36;100.00;99246.94;5054402;28;19925;-78
2022/02/23 04:02:18;;;;;;;;;;;;;;;6.55;100.00;99226.38;5034591;28;19929;-77
2022/02/23 04:05:04;;;;;;;;;;;;;;;6.62;100.00;99231.97;5007297;28;19940;-78
2022/02/23 04:07:54;;;;;;;;;;;;;;;6.67;100.00;99234.34;5016170;28;19925;-78
2022/02/23 04:10:43;;;;;;;;;;;;;;;6.47;100.00;99224.75;5034615;28;19925;-78
2022/02/23 04:13:29;;;;;;;;;;;;;;;6.42;100.00;99222.38;5048790;28;19932;-78
2022/02/23 04:16:25;;;;;;;;;;;;;;;6.55;100.00;99220.81;5009255;28;20064;-78
2022/02/23 04:19:11;;;;;;;;;;;;;;;6.59;100.00;99213.28;4999700;28;19932;-78
2022/02/23 04:21:58;;;;;;;;;;;;;;;6.53;100.00;99201.78;5010909;28;19933;-78
2022/02/23 04:24:43;;;;;;;;;;;;;;;6.73;100.00;99224.44;5013409;28;20315;-78
2022/02/23 04:27:29;;;;;;;;;;;;;;;6.62;100.00;99218.84;5014489;28;19932;-78
2022/02/23 04:30:14;;;;;;;;;;;;;;;6.53;100.00;99207.34;5001011;28;20260;-78
2022/02/23 04:33:05;;;;;;;;;;;;;;;6.52;100.00;99219.66;4949931;28;19930;-77
2022/02/23 04:35:53;;;;;;;;;;;;;;;6.66;100.00;99227.22;4935880;29;20025;-78
2022/02/23 04:38:41;;;;;;;;;;;;;;;6.63;100.00;99219.66;4943603;29;20066;-78
2022/02/23 04:41:27;;;;;;;;;;;;;;;6.67;100.00;99220.47;4952402;28;20473;-78
2022/02/23 04:43:58;;;;;;;;;;;;;;;6.57;100.00;99224.78;4955681;29;19927;-78
2022/02/23 04:46:25;;;;;;;;;;;;;;;6.71;100.00;99229.59;4954826;28;19933;-78
2022/02/23 04:49:08;;;;;;;;;;;;;;;6.53;100.00;99232.31;4958781;28;20127;-78
2022/02/23 04:51:53;;;;;;;;;;;;;;;6.71;100.00;99210.94;4994770;28;19969;-78
2022/02/23 04:54:39;;;;;;;;;;;;;;;6.57;100.00;99210.91;4967672;28;19932;-78
2022/02/23 04:57:32;;;;;;;;;;;;;;;6.75;100.00;99213.75;4942887;29;20410;-78
2022/02/23 05:00:20;;;;;;;;;;;;;;;6.45;100.00;99202.19;4936578;29;19927;-78
2022/02/23 05:03:07;;;;;;;;;;;;;;;6.46;100.00;99212.88;4935804;29;19938;-78
2022/02/23 05:05:35;;;;;;;;;;;;;;;6.51;100.00;99212.47;4935872;29;20302;-78
2022/02/23 05:08:22;;;;;;;;;;;;;;;6.52;100.00;99211.31;4967694;28;20437;-78
2022/02/23 05:11:12;;;;;;;;;;;;;;;6.43;100.00;99193.44;4942449;29;19926;-78
2022/02/23 05:13:58;;;;;;;;;;;;;;;6.48;100.00;99193.06;4955856;29;19990;-78
2022/02/23 05:16:44;;;;;;;;;;;;;;;6.50;100.00;99201.78;4955977;29;19958;-78
2022/02/23 05:19:44;;;;;;;;;;;;;;;6.52;100.00;99199.41;4898351;29;19962;-78
2022/02/23 05:22:36;;;;;;;;;;;;;;;6.67;100.00;99207.38;4898169;29;20531;-78
2022/02/23 05:25:24;;;;;;;;;;;;;;;6.60;100.00;99196.28;4898528;29;19998;-78
2022/02/23 05:28:09;;;;;;;;;;;;;;;6.64;100.00;99188.72;4897971;29;20272;-78
2022/02/23 05:30:57;;;;;;;;;;;;;;;6.59;100.00;99177.19;4893145;29;19943;-78
2022/02/23 05:33:54;;;;;;;;;;;;;;;6.56;100.00;99172.44;4884197;29;19966;-78
2022/02/23 05:36:40;;;;;;;;;;;;;;;6.50;100.00;99179.56;4898394;29;19980;-78
2022/02/23 05:39:27;;;;;;;;;;;;;;;6.49;100.00;99172.44;4897648;29;19928;-78
2022/02/23 05:42:04;;;;;;;;;;;;;;;6.56;100.00;99178.78;4897646;29;19928;-78
2022/02/23 05:44:49;;;;;;;;;;;;;;;6.51;100.00;99170.06;4898012;29;19968;-78
2022/02/23 05:47:37;;;;;;;;;;;;;;;6.59;100.00;99166.09;4904447;29;19930;-78
2022/02/23 05:50:33;;;;;;;;;;;;;;;6.71;100.00;99162.97;4916221;29;20316;-78
2022/02/23 05:53:19;;;;;;;;;;;;;;;6.60;100.00;99162.97;4916711;29;20454;-78
2022/02/23 05:56:05;;;;;;;;;;;;;;;6.68;100.00;99153.41;4933869;29;20425;-78
2022/02/23 05:58:50;;;;;;;;;;;;;;;6.74;100.00;99162.94;4943347;29;19933;-78
2022/02/23 06:01:36;;;;;;;;;;;;;;;6.92;100.00;99163.75;4950508;29;20291;-78
2022/02/23 06:04:22;;;;;;;;;;;;;;;6.90;100.00;99165.34;4954610;29;19988;-78
2022/02/23 06:07:07;;;;;;;;;;;;;;;6.84;100.00;99155.81;4953743;28;20389;-78
2022/02/23 06:09:55;;;;;;;;;;;;;;;6.78;100.00;99163.75;4909658;29;19928;-78
2022/02/23 06:12:42;;;;;;;;;;;;;;;6.75;100.00;99159.00;4896850;29;19979;-78
2022/02/23 06:15:30;;;;;;;;;;;;;;;6.60;100.00;99151.03;4896365;29;20014;-77
2022/02/23 06:18:17;;;;;;;;;;;;;;;6.78;100.00;99160.97;4895135;29;20459;-78
2022/02/23 06:21:02;;;;;;;;;;;;;;;6.55;100.00;99154.19;4910727;29;20420;-78
2022/02/23 06:23:48;;;;;;;;;;;;;;;6.60;100.00;99151.03;4897375;29;19958;-78
2022/02/23 06:26:36;;;;;;;;;;;;;;;6.56;100.00;99128.03;4983813;28;19925;-78
2022/02/23 06:29:23;;;;;;;;;;;;;;;6.52;100.00;99155.78;5051896;28;19948;-78
2022/02/23 06:32:11;;;;;;;;;;;;;;;6.53;100.00;99156.56;4973059;28;19932;-77
2022/02/23 06:35:03;;;;;;;;;;;;;;;6.49;100.00;99144.69;4973135;28;19933;-77
2022/02/23 06:37:50;;;;;;;;;;;;;;;6.53;100.00;99112.97;4921469;29;20024;-78
2022/02/23 06:40:36;;;;;;;;;;;;;;;6.50;100.00;99110.16;4953179;28;20089;-78
2022/02/23 06:43:21;;;;;;;;;;;;;;;6.42;100.00;99119.69;4959921;28;19933;-78
2022/02/23 06:46:08;;;;;;;;;;;;;;;6.59;100.00;99113.34;4973232;28;20053;-78
2022/02/23 06:48:53;;;;;;;;;;;;;;;6.66;100.00;99118.91;4974012;28;19933;-78
2022/02/23 06:51:33;;;;;;;;;;;;;;;6.48;100.00;99107.00;4990822;28;20301;-78
2022/02/23 06:54:35;;;;;;;;;;;;;;;6.42;100.00;99097.50;4934046;29;20018;-78
2022/02/23 06:57:34;;;;;;;;;;;;;;;6.49;100.00;99089.97;4887400;29;19928;-78
2022/02/23 07:00:19;;;;;;;;;;;;;;;6.39;100.00;99101.06;4864431;29;19935;-78
2022/02/23 07:03:05;;;;;;;;;;;;;;;6.44;100.00;99101.44;4878223;29;19934;-78
2022/02/23 07:05:52;;;;;;;;;;;;;;;6.35;100.00;99081.63;4896037;29;20029;-78
2022/02/23 07:08:47;;;;;;;;;;;;;;;6.50;100.00;99085.19;4892482;29;20492;-79
2022/02/23 07:11:33;;;;;;;;;;;;;;;6.36;100.00;99082.41;4914548;29;20322;-78
2022/02/23 07:14:19;;;;;;;;;;;;;;;6.56;100.00;99075.28;4927759;29;20035;-79
2022/02/23 07:17:33;;;;;;;;;;;;;;;6.62;100.00;99076.50;4924745;29;20437;-79
2022/02/23 07:20:32;;;;;;;;;;;;;;;6.62;100.00;99077.25;4929608;29;19927;-83
2022/02/23 07:23:01;;;;;;;;;;;;;;;6.62;100.00;99085.59;4914795;29;19963;-78
2022/02/23 07:25:51;;;;;;;;;;;;;;;6.74;100.00;99078.88;4930490;29;19974;-78
2022/02/23 07:28:42;;;;;;;;;;;;;;;6.89;100.00;99072.09;4963185;28;19925;-78
2022/02/23 07:31:44;;;;;;;;;;;;;;;6.95;100.00;99067.72;5002905;28;20304;-78
2022/02/23 07:34:25;;;;;;;;;;;;;;;6.93;100.00;99062.56;5007114;28;19930;-78
2022/02/23 07:36:53;;;;;;;;;;;;;;;6.90;100.00;99059.78;5002827;28;19941;-78
2022/02/23 07:39:26;;;;;;;;;;;;;;;6.92;100.00;99057.41;5031443;28;19925;-78
2022/02/23 07:42:25;;;;;;;;;;;;;;;6.78;100.00;99060.22;5041738;28;20011;-78
2022/02/23 07:45:22;;;;;;;;;;;;;;;6.85;100.00;99049.88;5027154;28;20412;-78
2022/02/23 07:47:56;;;;;;;;;;;;;;;6.97;100.00;99052.25;5027471;28;19961;-78
2022/02/23 07:50:46;;;;;;;;;;;;;;;7.02;100.00;99048.25;5024190;28;19932;-78
2022/02/23 07:53:14;;;;;;;;;;;;;;;7.07;100.00;99067.31;5013792;28;19948;-79
2022/02/23 07:55:44;;;;;;;;;;;;;;;6.90;100.00;99071.72;5011317;28;19929;-79
2022/02/23 07:58:31;;;;;;;;;;;;;;;6.86;100.00;99068.13;5027311;28;20439;-79
2022/02/23 08:01:31;;;;;;;;;;;;;;;6.96;100.00;99067.34;5015297;28;20016;-79
2022/02/23 08:04:16;;;;;;;;;;;;;;;7.04;100.00;99046.66;5028242;28;19932;-79
2022/02/23 08:07:11;;;;;;;;;;;;;;;7.30;100.00;99062.88;5006553;28;20331;-78
2022/02/23 08:10:01;;;;;;;;;;;;;;;7.15;100.00;99054.97;5031354;28;19929;-78
2022/02/23 08:12:53;;;;;;;;;;;;;;;7.38;100.00;99052.53;5034371;28;19926;-79
2022/02/23 08:21:13;;;;;;;;;;;;;;;8.13;100.00;99043.41;5074500;28;19925;-79
2022/02/23 08:23:59;;;;;;;;;;;;;;;8.64;100.00;99035.09;5061499;28;19953;-79
2022/02/23 08:26:45;;;;;;;;;;;;;;;8.90;100.00;99009.38;5060406;28;19978;-79
2022/02/23 08:29:31;;;;;;;;;;;;;;;9.23;100.00;99013.38;5063269;28;20039;-78
2022/02/23 08:32:25;;;;;;;;;;;;;;;9.74;100.00;98999.19;5080446;28;20333;-78
2022/02/23 08:35:15;;;;;;;;;;;;;;;9.66;100.00;98989.34;5091846;28;19928;-78
2022/02/23 08:38:02;;;;;;;;;;;;;;;9.77;100.00;98998.34;5076104;28;20296;-78
2022/02/23 08:40:51;;;;;;;;;;;;;;;9.58;100.00;98990.63;5014324;28;20056;-79
2022/02/23 08:43:36;;;;;;;;;;;;;;;9.75;100.00;98966.50;5014444;28;19975;-79
2022/02/23 08:46:24;;;;;;;;;;;;;;;9.93;100.00;98965.03;5016568;28;19929;-79
2022/02/23 08:49:20;;;;;;;;;;;;;;;9.74;100.00;98974.06;5012510;28;20024;-78
2022/02/23 08:52:12;;;;;;;;;;;;;;;9.91;100.00;98961.88;5025479;28;20416;-78
2022/02/23 08:55:00;;;;;;;;;;;;;;;9.64;100.00;98979.78;4974616;28;19933;-79
2022/02/23 08:57:46;;;;;;;;;;;;;;;9.43;100.00;98983.66;5031713;28;19979;-78
2022/02/23 09:00:31;;;;;;;;;;;;;;;9.42;100.00;98987.66;5030127;28;19968;-79
2022/02/23 09:03:03;;;;;;;;;;;;;;;9.51;100.00;98970.44;5005776;28;19926;-78
2022/02/23 09:05:55;;;;;;;;;;;;;;;9.70;100.00;98961.38;4968389;28;19927;-79
2022/02/23 09:08:54;;;;;;;;;;;;;;;9.46;100.00;98963.31;4993842;28;19926;-78
2022/02/23 09:11:53;;;;;;;;;;;;;;;9.42;100.00;98961.78;4955320;29;19949;-79
2022/02/23 09:14:39;;;;;;;;;;;;;;;9.34;100.00;98946.34;4955201;29;19968;-78
2022/02/23 09:17:35;;;;;;;;;;;;;;;9.46;100.00;98956.94;4949302;29;20013;-75
2022/02/23 09:20:22;;;;;;;;;;;;;;;9.35;100.00;98945.13;4949127;29;19962;-76
2022/02/23 09:23:09;;;;;;;;;;;;;;;9.52;100.00;98944.09;4908000;29;20361;-80
2022/02/23 09:25:55;;;;;;;;;;;;;;;9.18;100.00;98935.00;4957469;28;19970;-79
2022/02/23 09:29:02;;;;;;;;;;;;;;;9.18;100.00;98953.31;4966337;28;19926;-78
2022/02/23 09:31:41;;;;;;;;;;;;;;;9.38;100.00;98930.34;4959607;28;19933;-77
2022/02/23 09:34:27;;;;;;;;;;;;;;;9.33;100.00;98926.03;4950681;28;19934;-76
2022/02/23 09:37:15;;;;;;;;;;;;;;;9.31;100.00;98930.44;4931796;29;19931;-77
2022/02/23 09:40:17;;;;;;;;;;;;;;;9.46;100.00;98912.31;4928477;29;19926;-77
2022/02/23 09:43:08;;;;;;;;;;;;;;;9.33;100.00;98950.34;4950701;28;19930;-78
2022/02/23 09:45:54;;;;;;;;;;;;;;;9.55;100.00;98926.53;4950270;28;20004;-78
2022/02/23 09:48:40;;;;;;;;;;;;;;;9.46;100.00;98926.25;4981449;28;19956;-82
2022/02/23 09:51:27;;;;;;;;;;;;;;;9.70;100.00;98917.53;4983682;28;19944;-82
2022/02/23 09:54:32;;;;;;;;;;;;;;;9.82;100.00;98924.53;4978125;28;20036;-82
2022/02/23 09:57:21;;;;;;;;;;;;;;;9.41;100.00;98921.13;4989281;28;19940;-79
2022/02/23 10:00:07;;;;;;;;;;;;;;;9.70;100.00;98916.75;4990313;28;19932;-79
2022/02/23 10:02:54;;;;;;;;;;;;;;;9.59;100.00;98910.56;4990763;28;19933;-82
2022/02/23 10:05:41;;;;;;;;;;;;;;;9.85;100.00;98918.91;4990845;28;19933;-82
2022/02/23 10:08:34;;;;;;;;;;;;;;;9.83;100.00;98915.75;4990066;28;19970;-82
2022/02/23 10:11:29;;;;;;;;;;;;;;;9.65;100.00;98897.72;4894671;29;20396;-82
2022/02/23 10:14:15;;;;;;;;;;;;;;;9.89;100.00;98890.97;4889373;29;20138;-82
2022/02/23 10:17:01;;;;;;;;;;;;;;;9.99;100.00;98887.19;4968265;28;19968;-82
2022/02/23 10:19:54;;;;;;;;;;;;;;;9.76;100.00;98912.25;4956295;28;20386;-82
2022/02/23 10:22:43;;;;;;;;;;;;;;;9.79;100.00;98915.00;4970232;28;19980;-82
2022/02/23 10:26:02;;;;;;;;;;;;;;;9.93;100.00;98914.00;4969366;28;20360;-82
2022/02/23 10:28:52;;;;;;;;;;;;;;;10.31;100.00;98919.00;4962127;28;20472;-82
2022/02/23 10:31:48;;;;;;;;;;;;;;;9.84;100.00;98913.75;4988645;28;20129;-78
2022/02/23 10:34:43;;;;;;;;;;;;;;;9.79;100.00;98911.41;4974303;28;19932;-80
2022/02/23 10:37:31;;;;;;;;;;;;;;;10.13;100.00;98900.94;4976252;28;20692;-81
2022/02/23 10:40:42;;;;;;;;;;;;;;;9.95;100.00;98908.81;4931277;29;20308;-80
2022/02/23 10:43:48;;;;;;;;;;;;;;;10.01;100.00;98890.34;4874357;29;19927;-80
2022/02/23 10:46:35;;;;;;;;;;;;;;;10.16;100.00;98891.72;4873883;29;19982;-80
2022/02/23 10:49:21;;;;;;;;;;;;;;;10.36;100.00;98890.56;4938376;29;20302;-80
2022/02/23 10:52:16;;;;;;;;;;;;;;;10.27;100.00;98903.50;4890998;29;20351;-81
2022/02/23 10:55:14;;;;;;;;;;;;;;;10.54;100.00;98904.22;4835044;29;20401;-80
2022/02/23 10:58:06;;;;;;;;;;;;;;;10.47;100.00;98887.56;4787409;29;20644;-83
2022/02/23 11:01:06;;;;;;;;;;;;;;;10.41;100.00;98892.06;4785202;29;20121;-82
2022/02/23 11:04:05;;;;;;;;;;;;;;;10.60;100.00;98877.38;4797249;29;20081;-81
2022/02/23 11:07:05;;;;;;;;;;;;;;;10.66;100.00;98875.66;4799378;29;19994;-80
2022/02/23 11:10:04;;;;;;;;;;;;;;;10.47;100.00;98862.44;4798954;29;20558;-80
2022/02/23 11:12:58;;;;;;;;;;;;;;;10.49;100.00;98882.34;4835473;29;19928;-81
2022/02/23 11:15:45;;;;;;;;;;;;;;;10.54;100.00;98881.88;4887385;29;20063;-80
2022/02/23 11:18:13;;;;;;;;;;;;;;;10.47;100.00;98879.97;4891521;29;20370;-82
2022/02/23 11:20:59;;;;;;;;;;;;;;;10.51;100.00;98861.16;4890559;29;20296;-80
2022/02/23 11:23:28;;;;;;;;;;;;;;;10.45;100.00;98864.88;4891079;29;19927;-80
2022/02/23 11:25:56;;;;;;;;;;;;;;;10.34;100.00;98861.47;4890575;29;20347;-82
2022/02/23 11:28:27;;;;;;;;;;;;;;;10.23;100.00;98846.91;4889970;29;20070;-84
2022/02/23 11:30:56;;;;;;;;;;;;;;;10.60;100.00;98829.88;4894481;29;19927;-78
2022/02/23 11:33:42;;;;;;;;;;;;;;;10.67;100.00;98864.03;4933155;29;19943;-78
2022/02/23 11:36:17;;;;;;;;;;;;;;;10.67;100.00;98858.44;4986260;28;19925;-79
2022/02/23 11:38:45;;;;;;;;;;;;;;;10.53;100.00;98858.72;4991576;28;21797;-78
2022/02/23 11:41:24;;;;;;;;;;;;;;;10.66;100.00;98861.69;4983667;28;19926;-78
2022/02/23 11:44:10;;;;;;;;;;;;;;;10.58;100.00;98849.06;4986798;28;19926;-78
2022/02/23 11:46:48;;;;;;;;;;;;;;;10.76;100.00;98849.50;4998081;28;19965;-78
2022/02/23 11:49:16;;;;;;;;;;;;;;;10.56;100.00;98834.72;4991630;28;20019;-78
2022/02/23 11:51:44;;;;;;;;;;;;;;;10.54;100.00;98826.00;5005836;28;19932;-78
2022/02/23 11:54:13;;;;;;;;;;;;;;;10.44;100.00;98829.75;4999819;28;20020;-78
2022/02/23 11:56:46;;;;;;;;;;;;;;;10.71;100.00;98836.00;5056635;28;19925;-78
2022/02/23 11:59:35;;;;;;;;;;;;;;;10.49;100.00;98829.28;5069426;28;19925;-78
2022/02/23 12:02:09;;;;;;;;;;;;;;;10.72;100.00;98824.41;5063794;28;19975;-78
2022/02/23 12:04:47;;;;;;;;;;;;;;;10.49;100.00;98826.47;5060006;28;19925;-78
2022/02/23 12:07:14;;;;;;;;;;;;;;;10.70;100.00;98821.28;5088750;28;19924;-78
2022/02/23 12:09:56;;;;;;;;;;;;;;;10.68;100.00;98820.91;5107957;28;19931;-78
2022/02/23 12:12:31;;;;;;;;;;;;;;;11.08;100.00;98810.47;5108211;28;19924;-77
2022/02/23 12:14:59;;;;;;;;;;;;;;;10.92;100.00;98813.22;5094630;28;19924;-78
2022/02/23 12:17:44;;;;;;;;;;;;;;;11.12;100.00;98822.38;5097186;28;20387;-78
2022/02/23 12:20:30;;;;;;;;;;;;;;;10.89;100.00;98803.69;5097162;28;19924;-78
2022/02/23 12:23:06;;;;;;;;;;;;;;;10.87;100.00;98816.53;5079038;28;19951;-78
2022/02/23 12:25:59;;;;;;;;;;;;;;;10.93;100.00;98798.03;5096248;28;19924;-78
2022/02/23 12:28:30;;;;;;;;;;;;;;;11.11;100.00;98808.81;5054853;28;20456;-78
2022/02/23 12:31:03;;;;;;;;;;;;;;;11.06;100.00;98800.97;5096014;28;20440;-78
2022/02/23 12:33:31;;;;;;;;;;;;;;;10.96;100.00;98780.41;5095985;28;19932;-78
2022/02/23 12:36:03;;;;;;;;;;;;;;;11.08;100.00;98793.69;5095998;28;19924;-78
2022/02/23 12:38:32;;;;;;;;;;;;;;;11.18;100.00;98787.06;5095794;28;19928;-78
2022/02/23 12:41:00;;;;;;;;;;;;;;;11.11;100.00;98778.06;5077542;28;19931;-78
2022/02/23 12:43:30;;;;;;;;;;;;;;;11.23;100.00;98767.00;5077848;28;19931;-78
2022/02/23 12:45:58;;;;;;;;;;;;;;;11.21;100.00;98751.88;5095800;28;20010;-78
2022/02/23 12:48:31;;;;;;;;;;;;;;;11.24;100.00;98751.00;5095447;28;19969;-78
2022/02/23 12:51:01;;;;;;;;;;;;;;;11.18;100.00;98747.16;5077746;28;20015;-78
2022/02/23 12:53:34;;;;;;;;;;;;;;;11.36;100.00;98725.16;5095527;28;19950;-78
2022/02/23 12:56:15;;;;;;;;;;;;;;;11.37;100.00;98724.72;5076887;28;20280;-78
2022/02/23 12:58:43;;;;;;;;;;;;;;;11.32;100.00;98702.06;5077370;28;19924;-78
2022/02/23 13:01:18;;;;;;;;;;;;;;;11.34;100.00;98722.78;5095397;28;20358;-78
2022/02/23 13:03:45;;;;;;;;;;;;;;;11.31;100.00;98718.06;5060920;28;19931;-78
2022/02/23 13:06:13;;;;;;;;;;;;;;;11.33;100.00;98707.22;5077266;28;20019;-79
2022/02/23 13:08:41;;;;;;;;;;;;;;;11.33;100.00;98701.63;5077365;28;20069;-78
2022/02/23 13:11:09;;;;;;;;;;;;;;;11.30;100.00;98696.13;5060564;28;20030;-78
2022/02/23 13:13:41;;;;;;;;;;;;;;;11.56;100.00;98695.84;5060528;28;19930;-78
2022/02/23 13:16:09;;;;;;;;;;;;;;;11.21;100.00;98679.94;5077051;28;19963;-78
2022/02/23 13:18:40;;;;;;;;;;;;;;;11.33;100.00;98693.22;5095729;28;19924;-79
2022/02/23 13:21:07;;;;;;;;;;;;;;;11.44;100.00;98690.94;5077597;28;19924;-79
2022/02/23 13:23:49;;;;;;;;;;;;;;;11.54;100.00;98655.53;5095693;28;19924;-78
2022/02/23 13:26:16;;;;;;;;;;;;;;;11.30;100.00;98682.16;5095444;28;19925;-78
2022/02/23 13:28:59;;;;;;;;;;;;;;;11.34;100.00;98669.63;5077390;28;19924;-79
2022/02/23 13:31:31;;;;;;;;;;;;;;;11.42;100.00;98673.81;5077058;28;19924;-78
2022/02/23 13:34:13;;;;;;;;;;;;;;;11.50;100.00;98677.22;5095548;28;19924;-79
2022/02/23 13:36:41;;;;;;;;;;;;;;;11.24;100.00;98670.69;5077424;28;19928;-79
2022/02/23 13:39:15;;;;;;;;;;;;;;;11.19;100.00;98679.63;5077252;28;19931;-79
2022/02/23 13:42:15;;;;;;;;;;;;;;;11.58;100.00;98679.41;5095370;28;19932;-78
2022/02/23 13:44:44;;;;;;;;;;;;;;;11.21;100.00;98668.75;5061766;28;20647;-78
2022/02/23 13:47:13;;;;;;;;;;;;;;;11.11;100.00;98658.63;5095312;28;19931;-78
2022/02/23 13:49:55;;;;;;;;;;;;;;;11.02;100.00;98658.44;5094672;28;19938;-78
2022/02/23 13:52:24;;;;;;;;;;;;;;;10.81;100.00;98656.94;5056006;28;20367;-78
2022/02/23 13:56:50;;;;;;;;;;;;;;;10.75;100.00;98672.63;5059253;28;19951;-80
2022/02/23 13:59:38;;;;;;;;;;;;;;;10.48;100.00;98665.69;5062810;28;19924;-78
2022/02/23 14:02:07;;;;;;;;;;;;;;;10.44;100.00;98670.56;5080856;28;19924;-79
2022/02/23 14:04:45;;;;;;;;;;;;;;;10.61;100.00;98680.56;5093556;28;19924;-78
2022/02/23 14:07:23;;;;;;;;;;;;;;;10.52;100.00;98678.38;5091104;28;19924;-79
2022/02/23 14:09:52;;;;;;;;;;;;;;;10.51;100.00;98676.00;5076219;28;19924;-78
2022/02/23 14:12:23;;;;;;;;;;;;;;;10.54;100.00;98669.56;5089235;28;19931;-79
2022/02/23 14:15:34;;;;;;;;;;;;;;;10.40;100.00;98664.28;5031593;28;20013;-76
2022/02/23 14:18:24;;;;;;;;;;;;;;;10.52;100.00;98647.66;5055695;28;20200;-78
2022/02/23 14:22:04;;;;;;;;;;;;;;;;;;;;;
2022/02/23 14:26:10;;;;;;;;;;;;;;;10.42;100.00;98633.91;5009828;28;20073;-79